sensor_id;sensor_type;location;lat;lon;timestamp;P1;durP1;ratioP1;P2;durP2;ratioP2
44774;SDS011;31340;51.402;0.016;2023-12-20T00:01:22;10.82;;;2.20;;
44774;SDS011;31340;51.402;0.016;2023-12-20T00:03:50;13.82;;;2.90;;
44774;SDS011;31340;51.402;0.016;2023-12-20T00:06:18;16.13;;;2.97;;
44774;SDS011;31340;51.402;0.016;2023-12-20T00:08:46;11.13;;;2.33;;
44774;SDS011;31340;51.402;0.016;2023-12-20T00:11:14;14.98;;;2.55;;
44774;SDS011;31340;51.402;0.016;2023-12-20T00:13:42;12.38;;;2.78;;
44774;SDS011;31340;51.402;0.016;2023-12-20T00:16:13;14.05;;;2.35;;
44774;SDS011;31340;51.402;0.016;2023-12-20T00:18:41;15.23;;;2.85;;
44774;SDS011;31340;51.402;0.016;2023-12-20T00:21:09;9.23;;;2.55;;
44774;SDS011;31340;51.402;0.016;2023-12-20T00:23:37;12.13;;;2.15;;
44774;SDS011;31340;51.402;0.016;2023-12-20T00:26:05;19.23;;;2.78;;
44774;SDS011;31340;51.402;0.016;2023-12-20T00:28:33;12.65;;;2.50;;
44774;SDS011;31340;51.402;0.016;2023-12-20T00:31:02;12.73;;;2.88;;
44774;SDS011;31340;51.402;0.016;2023-12-20T00:33:30;10.15;;;2.05;;
44774;SDS011;31340;51.402;0.016;2023-12-20T00:35:58;12.90;;;2.50;;
44774;SDS011;31340;51.402;0.016;2023-12-20T00:38:25;11.85;;;2.33;;
44774;SDS011;31340;51.402;0.016;2023-12-20T00:40:53;15.40;;;2.55;;
44774;SDS011;31340;51.402;0.016;2023-12-20T00:43:21;19.90;;;2.90;;
44774;SDS011;31340;51.402;0.016;2023-12-20T00:45:49;10.95;;;2.17;;
44774;SDS011;31340;51.402;0.016;2023-12-20T00:48:18;14.20;;;3.17;;
44774;SDS011;31340;51.402;0.016;2023-12-20T00:50:46;17.00;;;2.35;;
44774;SDS011;31340;51.402;0.016;2023-12-20T00:53:14;13.57;;;2.63;;
44774;SDS011;31340;51.402;0.016;2023-12-20T00:55:41;17.42;;;3.03;;
44774;SDS011;31340;51.402;0.016;2023-12-20T00:58:11;12.95;;;2.65;;
44774;SDS011;31340;51.402;0.016;2023-12-20T01:00:39;23.00;;;3.00;;
44774;SDS011;31340;51.402;0.016;2023-12-20T01:03:11;19.17;;;4.00;;
44774;SDS011;31340;51.402;0.016;2023-12-20T01:05:39;13.98;;;2.70;;
44774;SDS011;31340;51.402;0.016;2023-12-20T01:08:07;12.68;;;2.05;;
44774;SDS011;31340;51.402;0.016;2023-12-20T01:10:36;11.15;;;2.40;;
44774;SDS011;31340;51.402;0.016;2023-12-20T01:13:03;13.25;;;2.38;;
44774;SDS011;31340;51.402;0.016;2023-12-20T01:15:31;13.77;;;2.40;;
44774;SDS011;31340;51.402;0.016;2023-12-20T01:17:58;16.48;;;2.53;;
44774;SDS011;31340;51.402;0.016;2023-12-20T01:20:26;14.60;;;2.25;;
44774;SDS011;31340;51.402;0.016;2023-12-20T01:22:55;17.02;;;2.42;;
44774;SDS011;31340;51.402;0.016;2023-12-20T01:25:23;9.10;;;2.15;;
44774;SDS011;31340;51.402;0.016;2023-12-20T01:27:50;18.58;;;2.65;;
44774;SDS011;31340;51.402;0.016;2023-12-20T01:30:18;22.77;;;2.90;;
44774;SDS011;31340;51.402;0.016;2023-12-20T01:32:46;11.85;;;2.13;;
44774;SDS011;31340;51.402;0.016;2023-12-20T01:35:14;14.70;;;2.15;;
44774;SDS011;31340;51.402;0.016;2023-12-20T01:37:43;27.85;;;2.72;;
44774;SDS011;31340;51.402;0.016;2023-12-20T01:40:12;16.92;;;3.08;;
44774;SDS011;31340;51.402;0.016;2023-12-20T01:42:40;11.60;;;2.40;;
44774;SDS011;31340;51.402;0.016;2023-12-20T01:45:08;12.32;;;2.53;;
44774;SDS011;31340;51.402;0.016;2023-12-20T01:47:36;11.85;;;1.88;;
44774;SDS011;31340;51.402;0.016;2023-12-20T01:50:05;14.25;;;2.28;;
44774;SDS011;31340;51.402;0.016;2023-12-20T01:52:35;13.07;;;2.83;;
44774;SDS011;31340;51.402;0.016;2023-12-20T01:55:04;21.15;;;2.72;;
44774;SDS011;31340;51.402;0.016;2023-12-20T01:57:41;20.80;;;3.22;;
44774;SDS011;31340;51.402;0.016;2023-12-20T02:00:11;15.60;;;2.53;;
44774;SDS011;31340;51.402;0.016;2023-12-20T02:02:40;28.40;;;3.60;;
44774;SDS011;31340;51.402;0.016;2023-12-20T02:05:09;8.23;;;2.40;;
44774;SDS011;31340;51.402;0.016;2023-12-20T02:07:38;14.27;;;2.55;;
44774;SDS011;31340;51.402;0.016;2023-12-20T02:10:06;14.65;;;2.90;;
44774;SDS011;31340;51.402;0.016;2023-12-20T02:12:34;16.65;;;2.80;;
44774;SDS011;31340;51.402;0.016;2023-12-20T02:15:02;12.60;;;3.13;;
44774;SDS011;31340;51.402;0.016;2023-12-20T02:17:31;14.70;;;2.22;;
44774;SDS011;31340;51.402;0.016;2023-12-20T02:20:00;14.18;;;2.20;;
44774;SDS011;31340;51.402;0.016;2023-12-20T02:22:27;15.15;;;2.88;;
44774;SDS011;31340;51.402;0.016;2023-12-20T02:24:55;19.55;;;2.60;;
44774;SDS011;31340;51.402;0.016;2023-12-20T02:27:23;14.60;;;2.33;;
44774;SDS011;31340;51.402;0.016;2023-12-20T02:29:51;14.43;;;2.63;;
44774;SDS011;31340;51.402;0.016;2023-12-20T02:32:20;17.65;;;2.58;;
44774;SDS011;31340;51.402;0.016;2023-12-20T02:34:48;13.95;;;2.33;;
44774;SDS011;31340;51.402;0.016;2023-12-20T02:37:17;11.23;;;2.83;;
44774;SDS011;31340;51.402;0.016;2023-12-20T02:39:45;12.30;;;2.70;;
44774;SDS011;31340;51.402;0.016;2023-12-20T02:42:13;18.95;;;2.20;;
44774;SDS011;31340;51.402;0.016;2023-12-20T02:44:41;10.43;;;2.67;;
44774;SDS011;31340;51.402;0.016;2023-12-20T02:47:08;19.77;;;2.88;;
44774;SDS011;31340;51.402;0.016;2023-12-20T02:49:44;20.02;;;3.30;;
44774;SDS011;31340;51.402;0.016;2023-12-20T02:52:12;17.15;;;2.78;;
44774;SDS011;31340;51.402;0.016;2023-12-20T02:54:41;22.58;;;2.90;;
44774;SDS011;31340;51.402;0.016;2023-12-20T02:57:08;16.17;;;2.30;;
44774;SDS011;31340;51.402;0.016;2023-12-20T02:59:36;12.05;;;3.05;;
44774;SDS011;31340;51.402;0.016;2023-12-20T03:02:04;14.98;;;2.58;;
44774;SDS011;31340;51.402;0.016;2023-12-20T03:04:31;16.67;;;2.45;;
44774;SDS011;31340;51.402;0.016;2023-12-20T03:06:59;13.75;;;2.47;;
44774;SDS011;31340;51.402;0.016;2023-12-20T03:09:27;19.60;;;2.30;;
44774;SDS011;31340;51.402;0.016;2023-12-20T03:11:58;13.50;;;2.45;;
44774;SDS011;31340;51.402;0.016;2023-12-20T03:14:25;15.70;;;2.78;;
44774;SDS011;31340;51.402;0.016;2023-12-20T03:16:53;19.73;;;2.78;;
44774;SDS011;31340;51.402;0.016;2023-12-20T03:19:21;14.77;;;2.10;;
44774;SDS011;31340;51.402;0.016;2023-12-20T03:21:51;15.52;;;2.45;;
44774;SDS011;31340;51.402;0.016;2023-12-20T03:24:20;17.25;;;2.80;;
44774;SDS011;31340;51.402;0.016;2023-12-20T03:26:48;18.50;;;3.00;;
44774;SDS011;31340;51.402;0.016;2023-12-20T03:29:16;12.73;;;2.33;;
44774;SDS011;31340;51.402;0.016;2023-12-20T03:31:44;21.42;;;3.28;;
44774;SDS011;31340;51.402;0.016;2023-12-20T03:34:12;17.88;;;2.58;;
44774;SDS011;31340;51.402;0.016;2023-12-20T03:36:40;11.40;;;2.25;;
44774;SDS011;31340;51.402;0.016;2023-12-20T03:39:09;18.73;;;3.17;;
44774;SDS011;31340;51.402;0.016;2023-12-20T03:41:38;10.18;;;2.22;;
44774;SDS011;31340;51.402;0.016;2023-12-20T03:44:05;22.35;;;2.97;;
44774;SDS011;31340;51.402;0.016;2023-12-20T03:46:33;14.73;;;2.88;;
44774;SDS011;31340;51.402;0.016;2023-12-20T03:49:02;17.02;;;2.33;;
44774;SDS011;31340;51.402;0.016;2023-12-20T03:51:32;12.88;;;2.30;;
44774;SDS011;31340;51.402;0.016;2023-12-20T03:54:00;16.95;;;2.90;;
44774;SDS011;31340;51.402;0.016;2023-12-20T03:56:28;15.68;;;2.38;;
44774;SDS011;31340;51.402;0.016;2023-12-20T03:58:57;15.63;;;2.92;;
44774;SDS011;31340;51.402;0.016;2023-12-20T04:01:26;21.00;;;2.72;;
44774;SDS011;31340;51.402;0.016;2023-12-20T04:03:54;14.07;;;2.30;;
44774;SDS011;31340;51.402;0.016;2023-12-20T04:06:22;15.70;;;2.90;;
44774;SDS011;31340;51.402;0.016;2023-12-20T04:08:50;19.52;;;2.88;;
44774;SDS011;31340;51.402;0.016;2023-12-20T04:11:19;17.80;;;2.65;;
44774;SDS011;31340;51.402;0.016;2023-12-20T04:13:48;15.00;;;2.58;;
44774;SDS011;31340;51.402;0.016;2023-12-20T04:16:16;13.95;;;2.53;;
44774;SDS011;31340;51.402;0.016;2023-12-20T04:18:44;15.07;;;2.80;;
44774;SDS011;31340;51.402;0.016;2023-12-20T04:21:11;13.05;;;2.90;;
44774;SDS011;31340;51.402;0.016;2023-12-20T04:23:42;16.60;;;3.03;;
44774;SDS011;31340;51.402;0.016;2023-12-20T04:26:10;18.48;;;2.63;;
44774;SDS011;31340;51.402;0.016;2023-12-20T04:28:38;13.55;;;3.03;;
44774;SDS011;31340;51.402;0.016;2023-12-20T04:31:05;11.27;;;2.38;;
44774;SDS011;31340;51.402;0.016;2023-12-20T04:33:34;20.48;;;2.45;;
44774;SDS011;31340;51.402;0.016;2023-12-20T04:36:02;14.48;;;2.70;;
44774;SDS011;31340;51.402;0.016;2023-12-20T04:38:30;20.58;;;3.20;;
44774;SDS011;31340;51.402;0.016;2023-12-20T04:40:58;17.60;;;2.20;;
44774;SDS011;31340;51.402;0.016;2023-12-20T04:43:27;19.85;;;3.47;;
44774;SDS011;31340;51.402;0.016;2023-12-20T04:45:57;17.83;;;2.88;;
44774;SDS011;31340;51.402;0.016;2023-12-20T04:48:24;16.42;;;3.13;;
44774;SDS011;31340;51.402;0.016;2023-12-20T04:50:52;22.48;;;2.97;;
44774;SDS011;31340;51.402;0.016;2023-12-20T04:53:20;20.58;;;2.80;;
44774;SDS011;31340;51.402;0.016;2023-12-20T04:55:47;19.23;;;3.47;;
44774;SDS011;31340;51.402;0.016;2023-12-20T04:58:17;14.30;;;2.47;;
44774;SDS011;31340;51.402;0.016;2023-12-20T05:00:45;15.50;;;2.53;;
44774;SDS011;31340;51.402;0.016;2023-12-20T05:03:12;17.10;;;2.63;;
44774;SDS011;31340;51.402;0.016;2023-12-20T05:05:40;14.07;;;2.50;;
44774;SDS011;31340;51.402;0.016;2023-12-20T05:08:08;24.38;;;3.28;;
44774;SDS011;31340;51.402;0.016;2023-12-20T05:10:36;14.05;;;2.38;;
44774;SDS011;31340;51.402;0.016;2023-12-20T05:13:04;16.40;;;2.30;;
44774;SDS011;31340;51.402;0.016;2023-12-20T05:15:32;19.98;;;2.90;;
44774;SDS011;31340;51.402;0.016;2023-12-20T05:18:00;19.38;;;2.72;;
44774;SDS011;31340;51.402;0.016;2023-12-20T05:20:28;17.05;;;3.17;;
44774;SDS011;31340;51.402;0.016;2023-12-20T05:22:55;26.25;;;3.05;;
44774;SDS011;31340;51.402;0.016;2023-12-20T05:25:24;19.65;;;2.53;;
44774;SDS011;31340;51.402;0.016;2023-12-20T05:27:51;22.38;;;3.40;;
44774;SDS011;31340;51.402;0.016;2023-12-20T05:30:21;22.98;;;2.80;;
44774;SDS011;31340;51.402;0.016;2023-12-20T05:32:49;18.98;;;2.90;;
44774;SDS011;31340;51.402;0.016;2023-12-20T05:35:18;20.10;;;3.03;;
44774;SDS011;31340;51.402;0.016;2023-12-20T05:37:46;20.63;;;2.90;;
44774;SDS011;31340;51.402;0.016;2023-12-20T05:40:15;16.42;;;2.78;;
44774;SDS011;31340;51.402;0.016;2023-12-20T05:42:43;23.63;;;3.10;;
44774;SDS011;31340;51.402;0.016;2023-12-20T05:45:11;16.10;;;3.03;;
44774;SDS011;31340;51.402;0.016;2023-12-20T05:47:39;17.83;;;2.75;;
44774;SDS011;31340;51.402;0.016;2023-12-20T05:50:07;17.80;;;3.53;;
44774;SDS011;31340;51.402;0.016;2023-12-20T05:52:36;17.58;;;2.50;;
44774;SDS011;31340;51.402;0.016;2023-12-20T05:55:04;18.83;;;2.38;;
44774;SDS011;31340;51.402;0.016;2023-12-20T05:57:32;18.25;;;2.85;;
44774;SDS011;31340;51.402;0.016;2023-12-20T05:59:59;20.95;;;3.35;;
44774;SDS011;31340;51.402;0.016;2023-12-20T06:02:27;15.15;;;2.70;;
44774;SDS011;31340;51.402;0.016;2023-12-20T06:04:56;18.55;;;2.78;;
44774;SDS011;31340;51.402;0.016;2023-12-20T06:07:25;20.15;;;3.58;;
44774;SDS011;31340;51.402;0.016;2023-12-20T06:09:54;12.85;;;2.60;;
44774;SDS011;31340;51.402;0.016;2023-12-20T06:12:22;13.07;;;3.35;;
44774;SDS011;31340;51.402;0.016;2023-12-20T06:14:50;21.00;;;2.60;;
44774;SDS011;31340;51.402;0.016;2023-12-20T06:17:18;29.35;;;4.22;;
44774;SDS011;31340;51.402;0.016;2023-12-20T06:19:46;21.88;;;3.15;;
44774;SDS011;31340;51.402;0.016;2023-12-20T06:22:16;14.70;;;2.83;;
44774;SDS011;31340;51.402;0.016;2023-12-20T06:24:44;19.90;;;3.17;;
44774;SDS011;31340;51.402;0.016;2023-12-20T06:27:12;16.60;;;3.08;;
44774;SDS011;31340;51.402;0.016;2023-12-20T06:29:39;20.85;;;3.85;;
44774;SDS011;31340;51.402;0.016;2023-12-20T06:32:08;19.75;;;2.83;;
44774;SDS011;31340;51.402;0.016;2023-12-20T06:34:37;20.30;;;2.88;;
44774;SDS011;31340;51.402;0.016;2023-12-20T06:37:05;18.30;;;3.17;;
44774;SDS011;31340;51.402;0.016;2023-12-20T06:39:34;14.90;;;2.80;;
44774;SDS011;31340;51.402;0.016;2023-12-20T06:42:03;17.90;;;3.25;;
44774;SDS011;31340;51.402;0.016;2023-12-20T06:44:31;25.17;;;2.53;;
44774;SDS011;31340;51.402;0.016;2023-12-20T06:46:58;19.55;;;2.25;;
44774;SDS011;31340;51.402;0.016;2023-12-20T06:49:26;21.23;;;2.92;;
44774;SDS011;31340;51.402;0.016;2023-12-20T06:51:54;17.85;;;2.78;;
44774;SDS011;31340;51.402;0.016;2023-12-20T06:54:22;21.02;;;3.97;;
44774;SDS011;31340;51.402;0.016;2023-12-20T06:56:50;21.10;;;2.97;;
44774;SDS011;31340;51.402;0.016;2023-12-20T06:59:18;18.52;;;2.40;;
44774;SDS011;31340;51.402;0.016;2023-12-20T07:01:48;15.05;;;2.95;;
44774;SDS011;31340;51.402;0.016;2023-12-20T07:06:49;23.15;;;3.50;;
44774;SDS011;31340;51.402;0.016;2023-12-20T07:09:25;18.48;;;2.75;;
44774;SDS011;31340;51.402;0.016;2023-12-20T07:11:53;24.45;;;3.42;;
44774;SDS011;31340;51.402;0.016;2023-12-20T07:14:21;19.92;;;3.20;;
44774;SDS011;31340;51.402;0.016;2023-12-20T07:16:50;22.77;;;3.58;;
44774;SDS011;31340;51.402;0.016;2023-12-20T07:19:17;20.80;;;3.08;;
44774;SDS011;31340;51.402;0.016;2023-12-20T07:21:45;20.70;;;2.78;;
44774;SDS011;31340;51.402;0.016;2023-12-20T07:24:13;20.17;;;3.05;;
44774;SDS011;31340;51.402;0.016;2023-12-20T07:26:41;20.45;;;3.97;;
44774;SDS011;31340;51.402;0.016;2023-12-20T07:29:09;20.70;;;3.70;;
44774;SDS011;31340;51.402;0.016;2023-12-20T07:31:37;14.93;;;3.03;;
44774;SDS011;31340;51.402;0.016;2023-12-20T07:34:05;20.45;;;3.17;;
44774;SDS011;31340;51.402;0.016;2023-12-20T07:36:33;21.25;;;3.47;;
44774;SDS011;31340;51.402;0.016;2023-12-20T07:39:00;14.25;;;2.67;;
44774;SDS011;31340;51.402;0.016;2023-12-20T07:41:28;21.00;;;3.10;;
44774;SDS011;31340;51.402;0.016;2023-12-20T07:43:57;22.30;;;3.47;;
44774;SDS011;31340;51.402;0.016;2023-12-20T07:46:26;11.73;;;2.40;;
44774;SDS011;31340;51.402;0.016;2023-12-20T07:48:54;17.45;;;2.70;;
44774;SDS011;31340;51.402;0.016;2023-12-20T07:51:21;21.52;;;4.40;;
44774;SDS011;31340;51.402;0.016;2023-12-20T07:53:49;22.83;;;2.95;;
44774;SDS011;31340;51.402;0.016;2023-12-20T07:56:18;21.30;;;3.50;;
44774;SDS011;31340;51.402;0.016;2023-12-20T07:58:47;15.93;;;3.38;;
44774;SDS011;31340;51.402;0.016;2023-12-20T08:01:19;17.13;;;2.83;;
44774;SDS011;31340;51.402;0.016;2023-12-20T08:03:49;19.75;;;3.15;;
44774;SDS011;31340;51.402;0.016;2023-12-20T08:06:18;18.13;;;2.45;;
44774;SDS011;31340;51.402;0.016;2023-12-20T08:08:46;11.90;;;2.38;;
44774;SDS011;31340;51.402;0.016;2023-12-20T08:11:27;23.02;;;3.13;;
44774;SDS011;31340;51.402;0.016;2023-12-20T08:13:55;18.20;;;3.47;;
44774;SDS011;31340;51.402;0.016;2023-12-20T08:16:23;22.92;;;3.33;;
44774;SDS011;31340;51.402;0.016;2023-12-20T08:18:51;17.05;;;3.38;;
44774;SDS011;31340;51.402;0.016;2023-12-20T08:21:19;18.40;;;2.72;;
44774;SDS011;31340;51.402;0.016;2023-12-20T08:23:49;22.33;;;3.65;;
44774;SDS011;31340;51.402;0.016;2023-12-20T08:26:18;24.95;;;3.53;;
44774;SDS011;31340;51.402;0.016;2023-12-20T08:28:48;16.27;;;3.35;;
44774;SDS011;31340;51.402;0.016;2023-12-20T08:31:17;17.27;;;2.90;;
44774;SDS011;31340;51.402;0.016;2023-12-20T08:33:46;16.88;;;2.63;;
44774;SDS011;31340;51.402;0.016;2023-12-20T08:36:16;21.35;;;3.78;;
44774;SDS011;31340;51.402;0.016;2023-12-20T08:38:45;21.10;;;3.60;;
44774;SDS011;31340;51.402;0.016;2023-12-20T08:41:13;24.52;;;3.47;;
44774;SDS011;31340;51.402;0.016;2023-12-20T08:43:41;20.17;;;3.65;;
44774;SDS011;31340;51.402;0.016;2023-12-20T08:46:08;18.10;;;3.22;;
44774;SDS011;31340;51.402;0.016;2023-12-20T08:51:07;23.42;;;3.08;;
44774;SDS011;31340;51.402;0.016;2023-12-20T08:53:35;26.10;;;4.07;;
44774;SDS011;31340;51.402;0.016;2023-12-20T08:56:04;20.08;;;3.00;;
44774;SDS011;31340;51.402;0.016;2023-12-20T08:58:32;17.77;;;3.28;;
44774;SDS011;31340;51.402;0.016;2023-12-20T09:01:01;22.60;;;3.58;;
44774;SDS011;31340;51.402;0.016;2023-12-20T09:03:28;25.35;;;3.05;;
44774;SDS011;31340;51.402;0.016;2023-12-20T09:05:56;22.48;;;3.17;;
44774;SDS011;31340;51.402;0.016;2023-12-20T09:08:24;26.55;;;3.38;;
44774;SDS011;31340;51.402;0.016;2023-12-20T09:10:51;24.60;;;3.28;;
44774;SDS011;31340;51.402;0.016;2023-12-20T09:13:20;19.30;;;3.00;;
44774;SDS011;31340;51.402;0.016;2023-12-20T09:15:49;26.27;;;4.40;;
44774;SDS011;31340;51.402;0.016;2023-12-20T09:18:16;16.13;;;3.13;;
44774;SDS011;31340;51.402;0.016;2023-12-20T09:20:44;22.38;;;3.92;;
44774;SDS011;31340;51.402;0.016;2023-12-20T09:25:42;20.42;;;3.13;;
44774;SDS011;31340;51.402;0.016;2023-12-20T09:28:09;18.42;;;2.75;;
44774;SDS011;31340;51.402;0.016;2023-12-20T09:30:37;28.27;;;3.80;;
44774;SDS011;31340;51.402;0.016;2023-12-20T09:33:07;14.50;;;2.80;;
44774;SDS011;31340;51.402;0.016;2023-12-20T09:35:35;18.60;;;3.28;;
44774;SDS011;31340;51.402;0.016;2023-12-20T09:38:04;16.25;;;3.63;;
44774;SDS011;31340;51.402;0.016;2023-12-20T09:40:33;18.98;;;3.00;;
44774;SDS011;31340;51.402;0.016;2023-12-20T09:43:04;23.33;;;3.42;;
44774;SDS011;31340;51.402;0.016;2023-12-20T09:45:38;20.77;;;3.75;;
44774;SDS011;31340;51.402;0.016;2023-12-20T09:48:08;22.88;;;3.55;;
44774;SDS011;31340;51.402;0.016;2023-12-20T09:50:38;16.38;;;3.60;;
44774;SDS011;31340;51.402;0.016;2023-12-20T09:53:07;20.83;;;4.38;;
44774;SDS011;31340;51.402;0.016;2023-12-20T09:55:36;19.60;;;3.38;;
44774;SDS011;31340;51.402;0.016;2023-12-20T09:58:05;15.98;;;2.70;;
44774;SDS011;31340;51.402;0.016;2023-12-20T10:00:37;20.02;;;3.58;;
44774;SDS011;31340;51.402;0.016;2023-12-20T10:05:33;14.50;;;3.28;;
44774;SDS011;31340;51.402;0.016;2023-12-20T10:08:02;14.80;;;3.13;;
44774;SDS011;31340;51.402;0.016;2023-12-20T10:10:30;15.77;;;3.33;;
44774;SDS011;31340;51.402;0.016;2023-12-20T10:13:12;17.60;;;4.05;;
44774;SDS011;31340;51.402;0.016;2023-12-20T10:15:41;17.48;;;3.85;;
44774;SDS011;31340;51.402;0.016;2023-12-20T10:18:11;20.80;;;3.55;;
44774;SDS011;31340;51.402;0.016;2023-12-20T10:20:40;19.10;;;3.22;;
44774;SDS011;31340;51.402;0.016;2023-12-20T10:23:10;14.65;;;2.83;;
44774;SDS011;31340;51.402;0.016;2023-12-20T10:25:39;12.18;;;2.67;;
44774;SDS011;31340;51.402;0.016;2023-12-20T10:28:12;20.45;;;3.85;;
44774;SDS011;31340;51.402;0.016;2023-12-20T10:30:41;11.52;;;2.38;;
44774;SDS011;31340;51.402;0.016;2023-12-20T10:33:10;14.35;;;3.08;;
44774;SDS011;31340;51.402;0.016;2023-12-20T10:35:39;10.73;;;2.63;;
44774;SDS011;31340;51.402;0.016;2023-12-20T10:38:12;13.75;;;2.60;;
44774;SDS011;31340;51.402;0.016;2023-12-20T10:40:41;12.23;;;2.50;;
44774;SDS011;31340;51.402;0.016;2023-12-20T10:43:10;9.52;;;2.20;;
44774;SDS011;31340;51.402;0.016;2023-12-20T10:45:38;17.60;;;2.80;;
44774;SDS011;31340;51.402;0.016;2023-12-20T10:48:06;17.60;;;2.60;;
44774;SDS011;31340;51.402;0.016;2023-12-20T10:50:35;16.70;;;2.65;;
44774;SDS011;31340;51.402;0.016;2023-12-20T10:53:06;15.95;;;3.03;;
44774;SDS011;31340;51.402;0.016;2023-12-20T10:55:34;10.10;;;2.42;;
44774;SDS011;31340;51.402;0.016;2023-12-20T10:58:08;13.88;;;2.38;;
44774;SDS011;31340;51.402;0.016;2023-12-20T11:00:39;10.20;;;2.17;;
44774;SDS011;31340;51.402;0.016;2023-12-20T11:03:09;13.43;;;2.67;;
44774;SDS011;31340;51.402;0.016;2023-12-20T11:05:51;10.98;;;2.20;;
44774;SDS011;31340;51.402;0.016;2023-12-20T11:11:26;12.02;;;2.00;;
44774;SDS011;31340;51.402;0.016;2023-12-20T11:14:17;14.73;;;1.90;;
44774;SDS011;31340;51.402;0.016;2023-12-20T11:16:49;11.77;;;2.25;;
44774;SDS011;31340;51.402;0.016;2023-12-20T11:19:21;14.60;;;2.03;;
44774;SDS011;31340;51.402;0.016;2023-12-20T11:21:49;10.23;;;2.25;;
44774;SDS011;31340;51.402;0.016;2023-12-20T11:24:21;9.52;;;2.28;;
44774;SDS011;31340;51.402;0.016;2023-12-20T11:26:51;9.80;;;2.00;;
44774;SDS011;31340;51.402;0.016;2023-12-20T11:29:34;14.57;;;2.00;;
44774;SDS011;31340;51.402;0.016;2023-12-20T11:32:27;10.18;;;1.83;;
44774;SDS011;31340;51.402;0.016;2023-12-20T11:37:36;16.33;;;3.00;;
44774;SDS011;31340;51.402;0.016;2023-12-20T11:40:08;13.32;;;2.85;;
44774;SDS011;31340;51.402;0.016;2023-12-20T11:42:42;16.33;;;3.13;;
44774;SDS011;31340;51.402;0.016;2023-12-20T11:45:11;13.95;;;3.28;;
44774;SDS011;31340;51.402;0.016;2023-12-20T11:47:45;20.20;;;3.30;;
44774;SDS011;31340;51.402;0.016;2023-12-20T11:50:15;18.23;;;3.10;;
44774;SDS011;31340;51.402;0.016;2023-12-20T11:52:47;12.90;;;3.60;;
44774;SDS011;31340;51.402;0.016;2023-12-20T11:55:15;7.55;;;2.67;;
44774;SDS011;31340;51.402;0.016;2023-12-20T11:57:43;16.10;;;3.08;;
44774;SDS011;31340;51.402;0.016;2023-12-20T12:00:13;14.90;;;3.05;;
44774;SDS011;31340;51.402;0.016;2023-12-20T12:02:41;12.70;;;2.75;;
44774;SDS011;31340;51.402;0.016;2023-12-20T12:05:12;8.63;;;2.95;;
44774;SDS011;31340;51.402;0.016;2023-12-20T12:07:40;13.13;;;2.60;;
44774;SDS011;31340;51.402;0.016;2023-12-20T12:10:07;13.20;;;2.80;;
44774;SDS011;31340;51.402;0.016;2023-12-20T12:12:35;12.07;;;2.90;;
44774;SDS011;31340;51.402;0.016;2023-12-20T12:15:03;10.93;;;2.60;;
44774;SDS011;31340;51.402;0.016;2023-12-20T12:17:32;10.68;;;2.97;;
44774;SDS011;31340;51.402;0.016;2023-12-20T12:20:03;9.35;;;2.17;;
44774;SDS011;31340;51.402;0.016;2023-12-20T12:22:32;13.05;;;3.38;;
44774;SDS011;31340;51.402;0.016;2023-12-20T12:25:11;12.02;;;3.22;;
44774;SDS011;31340;51.402;0.016;2023-12-20T12:27:41;14.80;;;3.60;;
44774;SDS011;31340;51.402;0.016;2023-12-20T12:30:10;13.30;;;3.55;;
44774;SDS011;31340;51.402;0.016;2023-12-20T12:32:39;16.80;;;3.88;;
44774;SDS011;31340;51.402;0.016;2023-12-20T12:35:09;8.85;;;2.90;;
44774;SDS011;31340;51.402;0.016;2023-12-20T12:37:38;12.52;;;2.80;;
44774;SDS011;31340;51.402;0.016;2023-12-20T12:40:09;10.38;;;2.75;;
44774;SDS011;31340;51.402;0.016;2023-12-20T12:42:41;7.90;;;2.30;;
44774;SDS011;31340;51.402;0.016;2023-12-20T12:45:12;9.27;;;2.20;;
44774;SDS011;31340;51.402;0.016;2023-12-20T12:47:40;8.00;;;2.08;;
44774;SDS011;31340;51.402;0.016;2023-12-20T12:50:08;9.52;;;1.70;;
44774;SDS011;31340;51.402;0.016;2023-12-20T12:52:36;7.50;;;1.50;;
44774;SDS011;31340;51.402;0.016;2023-12-20T12:55:05;11.50;;;1.98;;
44774;SDS011;31340;51.402;0.016;2023-12-20T12:57:33;10.35;;;2.20;;
44774;SDS011;31340;51.402;0.016;2023-12-20T13:00:02;8.60;;;2.47;;
44774;SDS011;31340;51.402;0.016;2023-12-20T13:02:30;16.60;;;1.98;;
44774;SDS011;31340;51.402;0.016;2023-12-20T13:04:58;10.60;;;2.03;;
44774;SDS011;31340;51.402;0.016;2023-12-20T13:07:28;6.20;;;1.75;;
44774;SDS011;31340;51.402;0.016;2023-12-20T13:09:55;6.93;;;1.80;;
44774;SDS011;31340;51.402;0.016;2023-12-20T13:12:23;6.00;;;1.50;;
44774;SDS011;31340;51.402;0.016;2023-12-20T13:14:50;8.23;;;2.13;;
44774;SDS011;31340;51.402;0.016;2023-12-20T13:17:18;8.52;;;1.70;;
44774;SDS011;31340;51.402;0.016;2023-12-20T13:19:47;8.00;;;1.73;;
44774;SDS011;31340;51.402;0.016;2023-12-20T13:22:15;6.57;;;1.73;;
44774;SDS011;31340;51.402;0.016;2023-12-20T13:24:43;6.07;;;1.58;;
44774;SDS011;31340;51.402;0.016;2023-12-20T13:27:11;4.78;;;1.20;;
44774;SDS011;31340;51.402;0.016;2023-12-20T13:29:39;6.50;;;1.20;;
44774;SDS011;31340;51.402;0.016;2023-12-20T13:32:07;4.40;;;1.13;;
44774;SDS011;31340;51.402;0.016;2023-12-20T13:34:34;3.58;;;1.58;;
44774;SDS011;31340;51.402;0.016;2023-12-20T13:37:03;7.43;;;1.88;;
44774;SDS011;31340;51.402;0.016;2023-12-20T13:39:31;7.05;;;1.90;;
44774;SDS011;31340;51.402;0.016;2023-12-20T13:41:59;6.05;;;1.67;;
44774;SDS011;31340;51.402;0.016;2023-12-20T13:44:28;4.55;;;1.10;;
44774;SDS011;31340;51.402;0.016;2023-12-20T13:46:55;6.60;;;1.30;;
44774;SDS011;31340;51.402;0.016;2023-12-20T13:49:23;3.90;;;1.50;;
44774;SDS011;31340;51.402;0.016;2023-12-20T13:51:53;6.10;;;1.40;;
44774;SDS011;31340;51.402;0.016;2023-12-20T13:54:22;7.63;;;1.67;;
44774;SDS011;31340;51.402;0.016;2023-12-20T13:56:49;7.70;;;1.30;;
44774;SDS011;31340;51.402;0.016;2023-12-20T13:59:34;10.57;;;1.63;;
44774;SDS011;31340;51.402;0.016;2023-12-20T14:02:02;6.45;;;1.70;;
44774;SDS011;31340;51.402;0.016;2023-12-20T14:04:31;9.70;;;1.58;;
44774;SDS011;31340;51.402;0.016;2023-12-20T14:07:10;6.45;;;1.55;;
44774;SDS011;31340;51.402;0.016;2023-12-20T14:09:40;10.57;;;2.00;;
44774;SDS011;31340;51.402;0.016;2023-12-20T14:12:13;4.43;;;1.35;;
44774;SDS011;31340;51.402;0.016;2023-12-20T14:14:42;8.23;;;2.08;;
44774;SDS011;31340;51.402;0.016;2023-12-20T14:17:12;5.38;;;1.70;;
44774;SDS011;31340;51.402;0.016;2023-12-20T14:19:39;6.57;;;1.55;;
44774;SDS011;31340;51.402;0.016;2023-12-20T14:22:07;4.55;;;1.20;;
44774;SDS011;31340;51.402;0.016;2023-12-20T14:24:35;6.40;;;1.60;;
44774;SDS011;31340;51.402;0.016;2023-12-20T14:27:03;5.03;;;1.40;;
44774;SDS011;31340;51.402;0.016;2023-12-20T14:29:31;5.07;;;1.80;;
44774;SDS011;31340;51.402;0.016;2023-12-20T14:31:59;5.45;;;1.23;;
44774;SDS011;31340;51.402;0.016;2023-12-20T14:34:28;5.07;;;1.58;;
44774;SDS011;31340;51.402;0.016;2023-12-20T14:36:56;9.98;;;1.52;;
44774;SDS011;31340;51.402;0.016;2023-12-20T14:39:24;5.13;;;1.50;;
44774;SDS011;31340;51.402;0.016;2023-12-20T14:41:52;8.13;;;1.80;;
44774;SDS011;31340;51.402;0.016;2023-12-20T14:44:21;3.47;;;1.33;;
44774;SDS011;31340;51.402;0.016;2023-12-20T14:46:50;7.28;;;2.10;;
44774;SDS011;31340;51.402;0.016;2023-12-20T14:49:18;5.22;;;1.30;;
44774;SDS011;31340;51.402;0.016;2023-12-20T14:51:45;4.07;;;1.42;;
44774;SDS011;31340;51.402;0.016;2023-12-20T14:54:15;2.95;;;1.27;;
44774;SDS011;31340;51.402;0.016;2023-12-20T14:56:42;6.70;;;1.33;;
44774;SDS011;31340;51.402;0.016;2023-12-20T14:59:10;6.43;;;1.30;;
44774;SDS011;31340;51.402;0.016;2023-12-20T15:01:37;6.78;;;1.80;;